Pagrindinis puslapis
METAR-TAF:

METAR-TAF

Oro uostai :

Maršalo Salų tarptautinis oro uostas

Madžūras, Maršalo salos

platuma: 07-04N, ilguma: 171-17E, Aukštis: 2 m

Dabartinis oras

Ataskaita buvo paskelbta 1 valandą ir 0 minutes, ne 07:59 UTC
Vėjas 13 kt iš Rytų/Šiaurės Rytų
Temperatūra 29°C
Drėgmė 79%
Slėgis 1010 hPa
Matomumas: 24.1 km
Mažai debesys ne aukštis 1500 ft
Išsisklaidę debesys ne aukštis 5000 ft
Su prošvaistėmis ne aukštis 12000 ft
Apsiniaukę ne aukštis 30000 ft

METAR: PKMJ 290759Z 07013KT 15SM FEW015 SCT050 BKN120 OVC300 29/25 A2983

Laikas: 20:59 (08:59 UTC)

Prognozė

Ataskaita buvo paskelbta 3 valandos ir 27 minutes, ne 05:32 UTC
Prognozė galioja nuo 29 metu 06 UTC su 01 metu 06 UTC
Vėjas 14 kt iš Rytų/Šiaurės Rytų
Matomumas: 10 km
Mažai debesys ne aukštis 1800 ft
Išsisklaidę debesys ne aukštis 5000 ft
Su prošvaistėmis ne aukštis 14000 ft
Liūtis kaimynystėje

TAF: PKMJ 290532Z 2906/0106 06014KT P6SM VCSH FEW018 SCT050 BKN140

Orai ataskaitas ir orų prognozės (METAR, TAF).

turimą stotys yra geltonos ir raudonos taškus žemėlapyje.

Perkelti pele per norėdami pamatyti stoties vardą.

Tada spustelėkite, norėdami matyti oro stebėjimo ir prognozės.

Norėdami pakeisti žemėlapį: spustelėkite ant žalios mygtukų su juodo kryžiaus žemyn,; žalią mygtuką su brūkšneliu, jei norite nutolinti; arba žalių rodyklių gretimoms žemėlapius.


METAR-TAF: